sensor_id;sensor_type;location;lat;lon;timestamp;pressure;altitude;pressure_sealevel;temperature;humidity
44044;BME280;29709;52.396;16.796;2023-02-11T00:00:43;103001.80;;;3.05;77.12
44044;BME280;29709;52.396;16.796;2023-02-11T00:03:46;102996.35;;;3.05;77.29
44044;BME280;29709;52.396;16.796;2023-02-11T00:06:49;102986.37;;;3.05;77.00
44044;BME280;29709;52.396;16.796;2023-02-11T00:09:52;102976.38;;;3.06;77.09
44044;BME280;29709;52.396;16.796;2023-02-11T00:12:56;102984.55;;;3.06;77.00
44044;BME280;29709;52.396;16.796;2023-02-11T00:15:59;102980.88;;;3.07;76.84
44044;BME280;29709;52.396;16.796;2023-02-11T00:19:02;102981.69;;;3.09;77.04
44044;BME280;29709;52.396;16.796;2023-02-11T00:22:08;102980.73;;;3.10;76.91
44044;BME280;29709;52.396;16.796;2023-02-11T00:25:11;102981.60;;;3.10;76.89
44044;BME280;29709;52.396;16.796;2023-02-11T00:28:41;102983.38;;;3.11;76.75
44044;BME280;29709;52.396;16.796;2023-02-11T00:31:44;102967.08;;;3.11;76.81
44044;BME280;29709;52.396;16.796;2023-02-11T00:34:51;102968.91;;;3.11;76.68
44044;BME280;29709;52.396;16.796;2023-02-11T00:37:56;102971.51;;;3.14;76.56
44044;BME280;29709;52.396;16.796;2023-02-11T00:40:59;102964.17;;;3.16;76.54
44044;BME280;29709;52.396;16.796;2023-02-11T00:44:03;102974.74;;;3.22;76.34
44044;BME280;29709;52.396;16.796;2023-02-11T00:47:06;102960.17;;;3.25;76.41
44044;BME280;29709;52.396;16.796;2023-02-11T00:50:12;102931.88;;;3.29;75.85
44044;BME280;29709;52.396;16.796;2023-02-11T00:53:51;102909.75;;;3.17;76.07
44044;BME280;29709;52.396;16.796;2023-02-11T00:56:58;102902.71;;;3.13;76.06
44044;BME280;29709;52.396;16.796;2023-02-11T01:00:11;102890.27;;;3.08;76.24
44044;BME280;29709;52.396;16.796;2023-02-11T01:03:19;102895.47;;;3.12;76.28
44044;BME280;29709;52.396;16.796;2023-02-11T01:06:29;102871.25;;;3.08;76.26
44044;BME280;29709;52.396;16.796;2023-02-11T01:09:37;102857.59;;;3.09;76.23
44044;BME280;29709;52.396;16.796;2023-02-11T01:13:08;102845.84;;;3.09;76.15
44044;BME280;29709;52.396;16.796;2023-02-11T01:16:12;102838.58;;;3.09;76.03
44044;BME280;29709;52.396;16.796;2023-02-11T01:19:16;102833.07;;;3.11;75.97
44044;BME280;29709;52.396;16.796;2023-02-11T01:22:20;102829.34;;;3.13;75.85
44044;BME280;29709;52.396;16.796;2023-02-11T01:25:25;102829.12;;;3.18;75.65
44044;BME280;29709;52.396;16.796;2023-02-11T01:28:30;102817.37;;;3.17;75.75
44044;BME280;29709;52.396;16.796;2023-02-11T01:31:35;102824.63;;;3.17;75.59
44044;BME280;29709;52.396;16.796;2023-02-11T01:34:40;102831.03;;;3.16;75.54
44044;BME280;29709;52.396;16.796;2023-02-11T01:38:20;102839.10;;;3.17;75.75
44044;BME280;29709;52.396;16.796;2023-02-11T01:41:24;102838.83;;;3.24;75.30
44044;BME280;29709;52.396;16.796;2023-02-11T01:44:31;102848.67;;;3.26;75.30
44044;BME280;29709;52.396;16.796;2023-02-11T01:47:35;102853.88;;;3.31;74.88
44044;BME280;29709;52.396;16.796;2023-02-11T01:50:39;102874.74;;;3.30;75.14
44044;BME280;29709;52.396;16.796;2023-02-11T01:53:45;102886.30;;;3.35;75.03
44044;BME280;29709;52.396;16.796;2023-02-11T01:57:29;102886.15;;;3.38;74.64
44044;BME280;29709;52.396;16.796;2023-02-11T02:00:37;102885.12;;;3.41;74.45
44044;BME280;29709;52.396;16.796;2023-02-11T02:03:43;102880.48;;;3.43;74.50
44044;BME280;29709;52.396;16.796;2023-02-11T02:06:55;102872.28;;;3.44;74.39
44044;BME280;29709;52.396;16.796;2023-02-11T02:10:07;102867.51;;;3.50;74.15
44044;BME280;29709;52.396;16.796;2023-02-11T02:13:12;102831.36;;;3.47;73.83
44044;BME280;29709;52.396;16.796;2023-02-11T02:16:41;102849.70;;;3.42;74.02
44044;BME280;29709;52.396;16.796;2023-02-11T02:26:29;102801.61;;;3.44;73.84
44044;BME280;29709;52.396;16.796;2023-02-11T02:39:42;102800.21;;;3.36;73.96
44044;BME280;29709;52.396;16.796;2023-02-11T02:43:16;102800.28;;;3.34;74.49
44044;BME280;29709;52.396;16.796;2023-02-11T02:46:26;102785.59;;;3.38;74.45
44044;BME280;29709;52.396;16.796;2023-02-11T02:49:30;102781.19;;;3.36;74.12
44044;BME280;29709;52.396;16.796;2023-02-11T02:52:42;102782.14;;;3.35;74.17
44044;BME280;29709;52.396;16.796;2023-02-11T02:55:59;102773.03;;;3.36;74.24
44044;BME280;29709;52.396;16.796;2023-02-11T03:06:08;102768.31;;;3.39;74.15
44044;BME280;29709;52.396;16.796;2023-02-11T03:12:29;102769.19;;;3.40;73.77
44044;BME280;29709;52.396;16.796;2023-02-11T03:15:37;102768.91;;;3.46;73.85
44044;BME280;29709;52.396;16.796;2023-02-11T03:18:48;102749.72;;;3.49;73.48
44044;BME280;29709;52.396;16.796;2023-02-11T03:21:52;102741.41;;;3.52;73.11
44044;BME280;29709;52.396;16.796;2023-02-11T03:25:28;102741.73;;;3.46;73.32
44044;BME280;29709;52.396;16.796;2023-02-11T03:28:47;102737.89;;;3.50;73.29
44044;BME280;29709;52.396;16.796;2023-02-11T03:31:55;102729.53;;;3.55;72.97
44044;BME280;29709;52.396;16.796;2023-02-11T03:35:10;102729.58;;;3.53;72.93
44044;BME280;29709;52.396;16.796;2023-02-11T03:41:29;102715.53;;;3.62;72.65
44044;BME280;29709;52.396;16.796;2023-02-11T03:44:57;102703.95;;;3.59;72.76
44044;BME280;29709;52.396;16.796;2023-02-11T03:47:54;102677.63;;;3.59;72.67
44044;BME280;29709;52.396;16.796;2023-02-11T03:51:02;102685.12;;;3.54;72.85
44044;BME280;29709;52.396;16.796;2023-02-11T03:54:12;102676.04;;;3.55;73.01
44044;BME280;29709;52.396;16.796;2023-02-11T03:57:16;102675.07;;;3.56;72.87
44044;BME280;29709;52.396;16.796;2023-02-11T04:00:45;102672.64;;;3.50;73.17
44044;BME280;29709;52.396;16.796;2023-02-11T04:03:48;102658.01;;;3.53;73.29
44044;BME280;29709;52.396;16.796;2023-02-11T04:06:51;102653.41;;;3.55;73.44
44044;BME280;29709;52.396;16.796;2023-02-11T04:09:55;102655.79;;;3.61;73.37
44044;BME280;29709;52.396;16.796;2023-02-11T04:12:58;102660.92;;;3.67;73.50
44044;BME280;29709;52.396;16.796;2023-02-11T04:16:02;102643.40;;;3.72;73.47
44044;BME280;29709;52.396;16.796;2023-02-11T04:19:05;102655.16;;;3.73;73.43
44044;BME280;29709;52.396;16.796;2023-02-11T04:22:08;102652.36;;;3.74;73.35
44044;BME280;29709;52.396;16.796;2023-02-11T04:25:11;102660.39;;;3.78;73.56
44044;BME280;29709;52.396;16.796;2023-02-11T04:28:15;102655.91;;;3.76;73.42
44044;BME280;29709;52.396;16.796;2023-02-11T04:31:46;102640.54;;;3.75;73.56
44044;BME280;29709;52.396;16.796;2023-02-11T04:34:49;102631.42;;;3.76;73.70
44044;BME280;29709;52.396;16.796;2023-02-11T04:37:53;102621.55;;;3.74;73.91
44044;BME280;29709;52.396;16.796;2023-02-11T04:40:56;102612.44;;;3.75;73.85
44044;BME280;29709;52.396;16.796;2023-02-11T04:44:02;102617.34;;;3.68;74.18
44044;BME280;29709;52.396;16.796;2023-02-11T04:47:05;102622.78;;;3.68;74.45
44044;BME280;29709;52.396;16.796;2023-02-11T04:50:09;102609.01;;;3.71;74.12
44044;BME280;29709;52.396;16.796;2023-02-11T04:53:12;102625.41;;;3.70;74.64
44044;BME280;29709;52.396;16.796;2023-02-11T04:56:15;102620.85;;;3.70;74.83
44044;BME280;29709;52.396;16.796;2023-02-11T04:59:18;102609.80;;;3.73;74.36
44044;BME280;29709;52.396;16.796;2023-02-11T05:02:47;102619.01;;;3.71;74.99
44044;BME280;29709;52.396;16.796;2023-02-11T05:05:50;102606.38;;;3.70;75.20
44044;BME280;29709;52.396;16.796;2023-02-11T05:08:53;102604.28;;;3.75;75.09
44044;BME280;29709;52.396;16.796;2023-02-11T05:11:56;102588.93;;;3.74;75.23
44044;BME280;29709;52.396;16.796;2023-02-11T05:15:00;102585.50;;;3.70;75.57
44044;BME280;29709;52.396;16.796;2023-02-11T05:18:03;102594.36;;;3.74;75.59
44044;BME280;29709;52.396;16.796;2023-02-11T05:21:08;102594.07;;;3.80;75.42
44044;BME280;29709;52.396;16.796;2023-02-11T05:24:11;102585.02;;;3.80;75.65
44044;BME280;29709;52.396;16.796;2023-02-11T05:27:14;102582.69;;;3.72;76.15
44044;BME280;29709;52.396;16.796;2023-02-11T05:30:17;102576.08;;;3.78;75.54
44044;BME280;29709;52.396;16.796;2023-02-11T05:33:46;102574.37;;;3.75;75.91
44044;BME280;29709;52.396;16.796;2023-02-11T05:36:49;102577.04;;;3.76;76.07
44044;BME280;29709;52.396;16.796;2023-02-11T05:39:52;102586.87;;;3.79;76.07
44044;BME280;29709;52.396;16.796;2023-02-11T05:42:55;102589.59;;;3.79;75.89
44044;BME280;29709;52.396;16.796;2023-02-11T05:45:59;102566.15;;;3.76;76.19
44044;BME280;29709;52.396;16.796;2023-02-11T05:49:02;102550.63;;;3.79;76.18
44044;BME280;29709;52.396;16.796;2023-02-11T05:52:05;102554.23;;;3.79;76.55
44044;BME280;29709;52.396;16.796;2023-02-11T05:55:09;102539.67;;;3.80;76.43
44044;BME280;29709;52.396;16.796;2023-02-11T05:58:12;102555.98;;;3.80;76.57
44044;BME280;29709;52.396;16.796;2023-02-11T06:01:15;102549.50;;;3.83;76.67
44044;BME280;29709;52.396;16.796;2023-02-11T06:04:18;102551.33;;;3.82;76.86
44044;BME280;29709;52.396;16.796;2023-02-11T06:07:47;102556.07;;;3.79;77.41
44044;BME280;29709;52.396;16.796;2023-02-11T06:10:50;102552.95;;;3.86;77.49
44044;BME280;29709;52.396;16.796;2023-02-11T06:13:53;102549.88;;;3.92;77.01
44044;BME280;29709;52.396;16.796;2023-02-11T06:16:56;102551.63;;;3.93;77.40
44044;BME280;29709;52.396;16.796;2023-02-11T06:20:00;102552.37;;;3.97;77.01
44044;BME280;29709;52.396;16.796;2023-02-11T06:23:04;102545.09;;;3.97;77.22
44044;BME280;29709;52.396;16.796;2023-02-11T06:26:09;102544.35;;;3.94;77.75
44044;BME280;29709;52.396;16.796;2023-02-11T06:29:16;102547.85;;;3.96;77.80
44044;BME280;29709;52.396;16.796;2023-02-11T06:32:20;102557.86;;;3.95;78.17
44044;BME280;29709;52.396;16.796;2023-02-11T06:35:48;102536.98;;;3.96;78.34
44044;BME280;29709;52.396;16.796;2023-02-11T06:38:52;102528.99;;;3.93;78.74
44044;BME280;29709;52.396;16.796;2023-02-11T06:41:55;102524.34;;;3.95;79.08
44044;BME280;29709;52.396;16.796;2023-02-11T06:44:58;102532.51;;;3.95;79.09
44044;BME280;29709;52.396;16.796;2023-02-11T06:48:01;102534.12;;;3.99;79.30
44044;BME280;29709;52.396;16.796;2023-02-11T06:51:06;102531.13;;;4.03;79.38
44044;BME280;29709;52.396;16.796;2023-02-11T06:54:11;102530.15;;;4.04;79.64
44044;BME280;29709;52.396;16.796;2023-02-11T06:57:14;102533.77;;;4.05;80.18
44044;BME280;29709;52.396;16.796;2023-02-11T07:00:18;102536.95;;;4.13;79.41
44044;BME280;29709;52.396;16.796;2023-02-11T07:03:21;102548.70;;;4.14;79.86
44044;BME280;29709;52.396;16.796;2023-02-11T07:06:50;102536.95;;;4.13;79.72
44044;BME280;29709;52.396;16.796;2023-02-11T07:09:53;102534.23;;;4.13;80.06
44044;BME280;29709;52.396;16.796;2023-02-11T07:12:56;102532.94;;;4.20;79.97
44044;BME280;29709;52.396;16.796;2023-02-11T07:16:04;102518.18;;;4.24;80.01
44044;BME280;29709;52.396;16.796;2023-02-11T07:19:07;102524.50;;;4.25;79.99
44044;BME280;29709;52.396;16.796;2023-02-11T07:22:10;102519.94;;;4.25;80.22
44044;BME280;29709;52.396;16.796;2023-02-11T07:25:14;102506.97;;;4.30;80.23
44044;BME280;29709;52.396;16.796;2023-02-11T07:28:17;102512.32;;;4.32;80.52
44044;BME280;29709;52.396;16.796;2023-02-11T07:31:23;102513.80;;;4.38;80.52
44044;BME280;29709;52.396;16.796;2023-02-11T07:34:52;102517.15;;;4.43;80.24
44044;BME280;29709;52.396;16.796;2023-02-11T07:37:56;102511.42;;;4.47;80.41
44044;BME280;29709;52.396;16.796;2023-02-11T07:41:04;102503.98;;;4.51;80.42
44044;BME280;29709;52.396;16.796;2023-02-11T07:44:08;102506.52;;;4.54;80.01
44044;BME280;29709;52.396;16.796;2023-02-11T07:47:11;102509.25;;;4.54;79.97
44044;BME280;29709;52.396;16.796;2023-02-11T07:50:16;102508.46;;;4.52;80.15
44044;BME280;29709;52.396;16.796;2023-02-11T07:53:19;102510.03;;;4.56;79.97
44044;BME280;29709;52.396;16.796;2023-02-11T07:56:23;102497.29;;;4.56;80.19
44044;BME280;29709;52.396;16.796;2023-02-11T07:59:26;102495.98;;;4.63;80.28
44044;BME280;29709;52.396;16.796;2023-02-11T08:02:56;102508.55;;;4.66;80.30
44044;BME280;29709;52.396;16.796;2023-02-11T08:06:08;102509.95;;;4.73;79.82
44044;BME280;29709;52.396;16.796;2023-02-11T08:09:15;102511.98;;;4.70;79.95
44044;BME280;29709;52.396;16.796;2023-02-11T08:12:18;102509.18;;;4.71;80.19
44044;BME280;29709;52.396;16.796;2023-02-11T08:15:21;102506.95;;;4.78;80.16
44044;BME280;29709;52.396;16.796;2023-02-11T08:18:24;102518.81;;;4.77;80.76
44044;BME280;29709;52.396;16.796;2023-02-11T08:21:29;102517.60;;;4.82;80.38
44044;BME280;29709;52.396;16.796;2023-02-11T08:24:32;102502.22;;;4.81;80.80
44044;BME280;29709;52.396;16.796;2023-02-11T08:28:01;102502.72;;;4.88;80.61
44044;BME280;29709;52.396;16.796;2023-02-11T08:31:06;102500.71;;;4.91;80.71
44044;BME280;29709;52.396;16.796;2023-02-11T08:34:10;102514.05;;;4.96;80.42
44044;BME280;29709;52.396;16.796;2023-02-11T08:37:15;102505.69;;;4.99;80.21
44044;BME280;29709;52.396;16.796;2023-02-11T08:40:19;102511.95;;;5.01;80.12
44044;BME280;29709;52.396;16.796;2023-02-11T08:43:22;102503.78;;;5.01;79.96
44044;BME280;29709;52.396;16.796;2023-02-11T08:46:25;102510.98;;;5.02;80.27
44044;BME280;29709;52.396;16.796;2023-02-11T08:49:29;102500.77;;;5.06;80.26
44044;BME280;29709;52.396;16.796;2023-02-11T08:52:35;102487.04;;;5.07;80.16
44044;BME280;29709;52.396;16.796;2023-02-11T08:56:05;102490.48;;;5.11;80.38
44044;BME280;29709;52.396;16.796;2023-02-11T08:59:12;102469.94;;;5.19;80.59
44044;BME280;29709;52.396;16.796;2023-02-11T09:02:16;102479.87;;;5.20;79.93
44044;BME280;29709;52.396;16.796;2023-02-11T09:05:20;102482.88;;;5.16;80.24
44044;BME280;29709;52.396;16.796;2023-02-11T09:08:24;102489.22;;;5.16;80.34
44044;BME280;29709;52.396;16.796;2023-02-11T09:11:30;102497.05;;;5.23;80.17
44044;BME280;29709;52.396;16.796;2023-02-11T09:14:34;102491.49;;;5.24;80.03
44044;BME280;29709;52.396;16.796;2023-02-11T09:17:37;102497.42;;;5.31;80.26
44044;BME280;29709;52.396;16.796;2023-02-11T09:21:12;102503.30;;;5.39;79.86
44044;BME280;29709;52.396;16.796;2023-02-11T09:24:16;102517.23;;;5.34;80.05
44044;BME280;29709;52.396;16.796;2023-02-11T09:27:20;102496.09;;;5.38;80.17
44044;BME280;29709;52.396;16.796;2023-02-11T09:30:24;102496.86;;;5.40;80.04
44044;BME280;29709;52.396;16.796;2023-02-11T09:33:28;102496.41;;;5.47;79.93
44044;BME280;29709;52.396;16.796;2023-02-11T09:36:37;102483.46;;;5.51;79.96
44044;BME280;29709;52.396;16.796;2023-02-11T09:39:41;102498.28;;;5.61;80.06
44044;BME280;29709;52.396;16.796;2023-02-11T09:43:01;102483.50;;;5.65;80.18
44044;BME280;29709;52.396;16.796;2023-02-11T09:46:36;102505.23;;;5.67;79.67
44044;BME280;29709;52.396;16.796;2023-02-11T09:49:49;102479.32;;;5.74;79.93
44044;BME280;29709;52.396;16.796;2023-02-11T09:56:12;102473.87;;;5.88;79.60
44044;BME280;29709;52.396;16.796;2023-02-11T09:59:17;102472.55;;;5.95;79.41
44044;BME280;29709;52.396;16.796;2023-02-11T10:09:36;102488.33;;;6.04;79.88
44044;BME280;29709;52.396;16.796;2023-02-11T10:23:22;102428.53;;;6.28;79.37
44044;BME280;29709;52.396;16.796;2023-02-11T10:26:40;102440.11;;;6.32;80.07
44044;BME280;29709;52.396;16.796;2023-02-11T10:29:50;102439.63;;;6.40;80.08
44044;BME280;29709;52.396;16.796;2023-02-11T10:33:22;102427.60;;;6.42;79.95
44044;BME280;29709;52.396;16.796;2023-02-11T10:36:16;102431.91;;;6.46;79.77
44044;BME280;29709;52.396;16.796;2023-02-11T10:39:25;102420.40;;;6.41;80.64
44044;BME280;29709;52.396;16.796;2023-02-11T10:42:29;102415.30;;;6.49;80.60
44044;BME280;29709;52.396;16.796;2023-02-11T10:45:59;102414.22;;;6.52;81.06
44044;BME280;29709;52.396;16.796;2023-02-11T10:49:04;102402.67;;;6.61;80.54
44044;BME280;29709;52.396;16.796;2023-02-11T10:52:22;102389.78;;;6.63;80.35
44044;BME280;29709;52.396;16.796;2023-02-11T10:55:26;102412.83;;;6.59;80.65
44044;BME280;29709;52.396;16.796;2023-02-11T10:58:35;102405.04;;;6.53;80.92
44044;BME280;29709;52.396;16.796;2023-02-11T11:05:05;102384.56;;;6.46;81.79
44044;BME280;29709;52.396;16.796;2023-02-11T11:08:11;102361.66;;;6.48;81.37
44044;BME280;29709;52.396;16.796;2023-02-11T11:11:21;102348.98;;;6.47;81.51
44044;BME280;29709;52.396;16.796;2023-02-11T11:14:24;102352.05;;;6.55;81.65
44044;BME280;29709;52.396;16.796;2023-02-11T11:17:31;102347.16;;;6.60;81.76
44044;BME280;29709;52.396;16.796;2023-02-11T11:21:03;102352.41;;;6.63;81.52
44044;BME280;29709;52.396;16.796;2023-02-11T11:24:19;102334.84;;;6.68;81.92
44044;BME280;29709;52.396;16.796;2023-02-11T11:27:24;102319.21;;;6.70;81.35
44044;BME280;29709;52.396;16.796;2023-02-11T11:30:40;102338.23;;;6.71;81.30
44044;BME280;29709;52.396;16.796;2023-02-11T11:33:46;102342.79;;;6.58;82.27
44044;BME280;29709;52.396;16.796;2023-02-11T11:36:50;102339.44;;;6.67;82.01
44044;BME280;29709;52.396;16.796;2023-02-11T11:40:25;102330.44;;;6.65;82.27
44044;BME280;29709;52.396;16.796;2023-02-11T11:43:29;102331.99;;;6.69;82.14
44044;BME280;29709;52.396;16.796;2023-02-11T11:46:36;102318.45;;;6.68;82.62
44044;BME280;29709;52.396;16.796;2023-02-11T11:56:19;102361.83;;;6.72;82.50
44044;BME280;29709;52.396;16.796;2023-02-11T11:59:24;102360.09;;;6.71;82.84
44044;BME280;29709;52.396;16.796;2023-02-11T12:29:17;102398.34;;;6.71;84.97
44044;BME280;29709;52.396;16.796;2023-02-11T12:32:34;102392.23;;;6.68;85.27
44044;BME280;29709;52.396;16.796;2023-02-11T12:35:46;102393.17;;;6.66;85.83
44044;BME280;29709;52.396;16.796;2023-02-11T12:39:01;102397.58;;;6.69;85.82
44044;BME280;29709;52.396;16.796;2023-02-11T12:42:23;102387.81;;;6.65;86.37
44044;BME280;29709;52.396;16.796;2023-02-11T12:45:48;102388.91;;;6.62;86.91
44044;BME280;29709;52.396;16.796;2023-02-11T12:52:35;102397.76;;;6.66;87.04
44044;BME280;29709;52.396;16.796;2023-02-11T12:55:33;102392.40;;;6.64;86.97
44044;BME280;29709;52.396;16.796;2023-02-11T12:58:47;102402.56;;;6.62;87.58
44044;BME280;29709;52.396;16.796;2023-02-11T13:01:55;102409.55;;;6.66;87.61
44044;BME280;29709;52.396;16.796;2023-02-11T13:05:15;102400.61;;;6.64;87.42
44044;BME280;29709;52.396;16.796;2023-02-11T13:11:38;102407.16;;;6.62;88.08
44044;BME280;29709;52.396;16.796;2023-02-11T13:14:43;102404.64;;;6.59;88.16
44044;BME280;29709;52.396;16.796;2023-02-11T13:24:47;102404.67;;;6.72;88.08
44044;BME280;29709;52.396;16.796;2023-02-11T13:27:58;102408.61;;;6.68;88.41
44044;BME280;29709;52.396;16.796;2023-02-11T13:31:03;102406.66;;;6.70;88.73
44044;BME280;29709;52.396;16.796;2023-02-11T13:37:34;102403.70;;;6.73;88.70
44044;BME280;29709;52.396;16.796;2023-02-11T13:40:39;102399.98;;;6.74;88.60
44044;BME280;29709;52.396;16.796;2023-02-11T13:44:17;102405.45;;;6.74;89.05
44044;BME280;29709;52.396;16.796;2023-02-11T13:47:33;102399.87;;;6.75;89.01
44044;BME280;29709;52.396;16.796;2023-02-11T13:50:47;102415.21;;;6.78;88.97
44044;BME280;29709;52.396;16.796;2023-02-11T13:54:34;102420.66;;;6.78;89.19
44044;BME280;29709;52.396;16.796;2023-02-11T13:57:40;102414.77;;;6.84;89.00
44044;BME280;29709;52.396;16.796;2023-02-11T14:00:49;102412.80;;;6.86;89.08
44044;BME280;29709;52.396;16.796;2023-02-11T14:07:25;102420.70;;;6.90;89.32
44044;BME280;29709;52.396;16.796;2023-02-11T14:10:52;102418.51;;;6.95;88.82
44044;BME280;29709;52.396;16.796;2023-02-11T14:14:02;102408.46;;;6.96;88.99
44044;BME280;29709;52.396;16.796;2023-02-11T14:17:15;102394.59;;;6.99;88.79
44044;BME280;29709;52.396;16.796;2023-02-11T14:23:35;102404.73;;;6.97;89.26
44044;BME280;29709;52.396;16.796;2023-02-11T14:33:54;102425.87;;;7.08;89.13
44044;BME280;29709;52.396;16.796;2023-02-11T14:43:34;102450.94;;;7.27;88.92
44044;BME280;29709;52.396;16.796;2023-02-11T14:46:43;102453.69;;;7.27;89.00
44044;BME280;29709;52.396;16.796;2023-02-11T14:49:48;102459.16;;;7.27;89.08
44044;BME280;29709;52.396;16.796;2023-02-11T14:53:21;102463.56;;;7.30;89.08
44044;BME280;29709;52.396;16.796;2023-02-11T14:56:28;102461.24;;;7.36;88.74
44044;BME280;29709;52.396;16.796;2023-02-11T14:59:36;102482.38;;;7.34;88.84
44044;BME280;29709;52.396;16.796;2023-02-11T15:02:42;102487.44;;;7.40;88.80
44044;BME280;29709;52.396;16.796;2023-02-11T15:05:55;102493.45;;;7.45;88.57
44044;BME280;29709;52.396;16.796;2023-02-11T15:09:05;102488.84;;;7.46;88.58
44044;BME280;29709;52.396;16.796;2023-02-11T15:12:26;102494.97;;;7.49;88.63
44044;BME280;29709;52.396;16.796;2023-02-11T15:15:28;102487.44;;;7.53;88.21
44044;BME280;29709;52.396;16.796;2023-02-11T15:19:01;102489.20;;;7.54;88.05
44044;BME280;29709;52.396;16.796;2023-02-11T15:22:14;102480.12;;;7.53;88.27
44044;BME280;29709;52.396;16.796;2023-02-11T15:25:16;102496.30;;;7.57;87.99
44044;BME280;29709;52.396;16.796;2023-02-11T15:28:24;102502.65;;;7.57;88.15
44044;BME280;29709;52.396;16.796;2023-02-11T15:31:28;102499.70;;;7.60;88.20
44044;BME280;29709;52.396;16.796;2023-02-11T15:34:33;102493.27;;;7.61;88.52
44044;BME280;29709;52.396;16.796;2023-02-11T15:37:38;102499.27;;;7.66;88.56
44044;BME280;29709;52.396;16.796;2023-02-11T15:41:07;102500.04;;;7.68;88.02
44044;BME280;29709;52.396;16.796;2023-02-11T15:47:30;102519.55;;;7.76;87.97
44044;BME280;29709;52.396;16.796;2023-02-11T15:50:34;102506.60;;;7.78;87.58
44044;BME280;29709;52.396;16.796;2023-02-11T15:53:42;102518.43;;;7.79;87.80
44044;BME280;29709;52.396;16.796;2023-02-11T15:56:50;102515.58;;;7.80;87.38
44044;BME280;29709;52.396;16.796;2023-02-11T15:59:57;102530.25;;;7.79;87.56
44044;BME280;29709;52.396;16.796;2023-02-11T16:06:34;102539.26;;;7.81;87.40
44044;BME280;29709;52.396;16.796;2023-02-11T16:09:35;102532.88;;;7.81;87.39
44044;BME280;29709;52.396;16.796;2023-02-11T16:12:49;102544.62;;;7.83;87.55
44044;BME280;29709;52.396;16.796;2023-02-11T16:16:14;102546.48;;;7.83;87.37
44044;BME280;29709;52.396;16.796;2023-02-11T16:19:11;102539.91;;;7.85;87.66
44044;BME280;29709;52.396;16.796;2023-02-11T16:25:26;102562.34;;;7.90;87.02
44044;BME280;29709;52.396;16.796;2023-02-11T16:29:02;102584.92;;;7.94;87.42
44044;BME280;29709;52.396;16.796;2023-02-11T16:35:22;102588.97;;;8.01;87.62
44044;BME280;29709;52.396;16.796;2023-02-11T16:38:25;102597.11;;;8.02;87.35
44044;BME280;29709;52.396;16.796;2023-02-11T16:41:28;102610.68;;;8.04;87.21
44044;BME280;29709;52.396;16.796;2023-02-11T16:44:32;102614.41;;;8.03;87.76
44044;BME280;29709;52.396;16.796;2023-02-11T16:47:36;102612.55;;;8.03;87.46
44044;BME280;29709;52.396;16.796;2023-02-11T16:51:10;102626.13;;;8.05;87.30
44044;BME280;29709;52.396;16.796;2023-02-11T16:54:15;102630.04;;;8.01;87.54
44044;BME280;29709;52.396;16.796;2023-02-11T16:57:22;102642.75;;;8.02;87.27
44044;BME280;29709;52.396;16.796;2023-02-11T17:00:26;102638.59;;;7.96;87.53
44044;BME280;29709;52.396;16.796;2023-02-11T17:03:29;102650.20;;;8.00;87.95
44044;BME280;29709;52.396;16.796;2023-02-11T17:06:41;102665.86;;;7.98;87.42
44044;BME280;29709;52.396;16.796;2023-02-11T17:09:44;102668.82;;;7.95;87.75
44044;BME280;29709;52.396;16.796;2023-02-11T17:13:14;102677.44;;;7.89;87.90
44044;BME280;29709;52.396;16.796;2023-02-11T17:16:20;102674.59;;;7.90;87.44
44044;BME280;29709;52.396;16.796;2023-02-11T17:19:24;102682.70;;;7.92;87.95
44044;BME280;29709;52.396;16.796;2023-02-11T17:22:28;102684.78;;;7.88;87.98
44044;BME280;29709;52.396;16.796;2023-02-11T17:25:31;102677.44;;;7.89;88.50
44044;BME280;29709;52.396;16.796;2023-02-11T17:28:34;102685.44;;;7.92;87.82
44044;BME280;29709;52.396;16.796;2023-02-11T17:31:38;102679.62;;;7.84;87.90
44044;BME280;29709;52.396;16.796;2023-02-11T17:34:42;102694.09;;;7.86;87.89
44044;BME280;29709;52.396;16.796;2023-02-11T17:37:45;102696.94;;;7.84;88.08
44044;BME280;29709;52.396;16.796;2023-02-11T17:41:16;102704.38;;;7.82;88.19
44044;BME280;29709;52.396;16.796;2023-02-11T17:44:20;102701.52;;;7.84;87.94
44044;BME280;29709;52.396;16.796;2023-02-11T17:47:23;102705.91;;;7.86;88.06
44044;BME280;29709;52.396;16.796;2023-02-11T17:50:27;102708.33;;;7.91;88.14
44044;BME280;29709;52.396;16.796;2023-02-11T17:53:31;102704.41;;;7.95;88.03
44044;BME280;29709;52.396;16.796;2023-02-11T17:56:35;102720.62;;;7.98;87.99
44044;BME280;29709;52.396;16.796;2023-02-11T17:59:38;102718.97;;;7.95;87.97
44044;BME280;29709;52.396;16.796;2023-02-11T18:02:41;102715.36;;;7.95;88.12
44044;BME280;29709;52.396;16.796;2023-02-11T18:05:44;102717.99;;;7.96;87.83
44044;BME280;29709;52.396;16.796;2023-02-11T18:08:48;102725.80;;;8.02;87.90
44044;BME280;29709;52.396;16.796;2023-02-11T18:12:17;102743.12;;;8.03;87.62
44044;BME280;29709;52.396;16.796;2023-02-11T18:15:28;102741.45;;;8.00;87.69
44044;BME280;29709;52.396;16.796;2023-02-11T18:18:32;102754.25;;;8.00;87.97
44044;BME280;29709;52.396;16.796;2023-02-11T18:21:35;102755.99;;;8.01;87.75
44044;BME280;29709;52.396;16.796;2023-02-11T18:24:40;102754.95;;;8.03;87.78
44044;BME280;29709;52.396;16.796;2023-02-11T18:27:43;102761.48;;;8.01;88.31
44044;BME280;29709;52.396;16.796;2023-02-11T18:30:47;102763.33;;;8.00;87.66
44044;BME280;29709;52.396;16.796;2023-02-11T18:33:52;102754.14;;;8.01;87.67
44044;BME280;29709;52.396;16.796;2023-02-11T18:37:22;102765.02;;;8.03;87.65
44044;BME280;29709;52.396;16.796;2023-02-11T18:40:25;102759.61;;;8.01;87.81
44044;BME280;29709;52.396;16.796;2023-02-11T18:43:29;102753.95;;;8.04;87.31
44044;BME280;29709;52.396;16.796;2023-02-11T18:46:35;102754.95;;;8.03;87.81